Česky Dansk Deutsch English Español Suomi Français Magyar Italiano Nederlands norsk Polski Português svenska Türkçe

 

Het Weer

Paphos Airport (Cyprus)

01:00, 28 juli 2016 (GMT)

NWNNE
WE
SWSSE
Home            
Paphos Airport Akrotiri Athalassa Ercan Larnaca Airport Antalya Beyrouth Aeroport Lattakia Sde-Haifa Haifa Galilee / Pina Adana / Sakirpasa Tel Aviv / Sde-Dov Airport Konya Adana / Incirlik Ben-Gurion International Airport Isparta Port Said Iskenderun Irbid Suleyman Demirel Damascus Int. Airport Dalaman Jerusalem Airport

Om een weerknop op uw website of weblog te plaatsen, copieer onderstaande code en plak die in uw pagina. In het eerste vakje staat HTML-code, in het tweede vakje UBB-code.


Add to Google

Details

Wind speed:2 bf, 5 kn, 2.6 m/s, 5.8 miles/h, 9.3 km/h
Wind direction:N, 350°
Visibility:Greater than 10000 m, 10 km, 32800 ft, 6.2 miles
Temperature:24°C, 75°F
Gefühlte Temperatur:23°C, 74°F
Dew-point:22°C, 72°F
Atmospheric pressure:1005 hPa, 753.8 mmHg, 29.68 inHg, 0.992 atm
Relative humidity:88.6 %
METAR:LCPH 280100Z AUTO 35005KT 9999 NCD 24/22 Q1005

Snelkoppelingen

Actuele weersinformatie van de hele wereld. Voeg locaties toe met het plus (+) symbool. Deze snelkoppelingen kunnen worden toegevoegd aan Google.

Lid van de Technetium groep

website free tracking
StatCounter NetStat W3C Validator

18-11-2018 07:00:58
astro.technetium.be money.technetium.be phote.technetium.be tafeltennistafel.technetium.be www.ligfiets.net